Time;durP1;ratioP1;P1;durP2;ratioP2;P2;SDS_P1;SDS_P2;PMS_P1;PMS_P2;Temp;Humidity;BMP_temperature;BMP_pressure;BME280_temperature;BME280_humidity;BME280_pressure;Samples;Min_cycle;Max_cycle;Signal;HPM_P1;HPM_P2
2022/08/11 00:00:04;;;;;;;4.03;3.63;;;;;;;;;;5141029;27;20229;-66
2022/08/11 00:02:35;;;;;;;3.80;3.60;;;;;;;;;;5132852;27;20666;-66
2022/08/11 00:05:07;;;;;;;4.25;3.50;;;;;;;;;;5140730;27;20282;-66
2022/08/11 00:07:35;;;;;;;4.00;3.67;;;;;;;;;;5140461;27;20297;-66
2022/08/11 00:10:03;;;;;;;3.95;3.65;;;;;;;;;;5140396;27;20605;-66
2022/08/11 00:12:30;;;;;;;3.85;3.47;;;;;;;;;;5140034;27;20202;-66
2022/08/11 00:14:59;;;;;;;4.13;3.70;;;;;;;;;;5139971;27;20263;-66
2022/08/11 00:17:31;;;;;;;4.30;3.83;;;;;;;;;;5131799;27;20234;-66
2022/08/11 00:20:05;;;;;;;3.78;3.47;;;;;;;;;;5140539;27;20608;-66
2022/08/11 00:22:32;;;;;;;3.90;3.55;;;;;;;;;;5140121;27;20543;-66
2022/08/11 00:25:01;;;;;;;4.25;3.85;;;;;;;;;;5140200;27;20242;-66
2022/08/11 00:27:34;;;;;;;4.05;3.85;;;;;;;;;;5140179;27;20631;-66
2022/08/11 00:30:01;;;;;;;3.90;3.60;;;;;;;;;;5139913;27;20566;-66
2022/08/11 00:32:29;;;;;;;3.92;3.63;;;;;;;;;;5140432;27;20283;-66
2022/08/11 00:34:57;;;;;;;3.88;3.58;;;;;;;;;;5140059;27;20203;-66
2022/08/11 00:37:26;;;;;;;4.03;3.70;;;;;;;;;;5139553;27;20275;-66
2022/08/11 00:39:55;;;;;;;4.00;3.70;;;;;;;;;;5126956;27;20264;-66
2022/08/11 00:42:28;;;;;;;4.20;3.90;;;;;;;;;;5139316;27;20206;-66
2022/08/11 00:45:04;;;;;;;3.78;3.47;;;;;;;;;;5139712;27;20202;-66
2022/08/11 00:47:45;;;;;;;3.95;3.75;;;;;;;;;;5138513;27;20231;-66
2022/08/11 00:50:19;;;;;;;4.00;3.70;;;;;;;;;;5139963;27;20210;-66
2022/08/11 00:53:03;;;;;;;4.00;3.70;;;;;;;;;;5139321;27;20647;-66
2022/08/11 00:55:51;;;;;;;3.90;3.60;;;;;;;;;;5139427;27;20263;-66
2022/08/11 00:58:33;;;;;;;3.92;3.72;;;;;;;;;;5139393;27;20329;-66
2022/08/11 01:01:10;;;;;;;3.83;3.53;;;;;;;;;;5139290;27;20205;-66
2022/08/11 01:03:56;;;;;;;3.55;3.35;;;;;;;;;;5139402;27;20578;-66
2022/08/11 01:06:39;;;;;;;3.78;3.53;;;;;;;;;;5122295;27;20198;-66
2022/08/11 01:09:16;;;;;;;3.50;3.30;;;;;;;;;;5139092;27;20202;-66
2022/08/11 01:11:53;;;;;;;3.83;3.63;;;;;;;;;;5138988;27;20202;-66
2022/08/11 01:14:35;;;;;;;3.55;3.35;;;;;;;;;;5139124;27;20212;-66
2022/08/11 01:17:15;;;;;;;3.70;3.50;;;;;;;;;;5138615;27;20286;-66
2022/08/11 01:20:06;;;;;;;3.90;3.60;;;;;;;;;;5139448;27;20605;-66
2022/08/11 01:22:52;;;;;;;3.72;3.53;;;;;;;;;;5114400;27;20263;-66
2022/08/11 01:25:50;;;;;;;4.03;3.83;;;;;;;;;;5139192;27;20226;-66
2022/08/11 01:28:49;;;;;;;3.58;3.28;;;;;;;;;;5139156;27;20501;-66
2022/08/11 01:31:35;;;;;;;3.70;3.40;;;;;;;;;;5138668;27;20480;-66
2022/08/11 01:34:21;;;;;;;4.10;3.70;;;;;;;;;;5137418;27;20191;-66
2022/08/11 01:37:01;;;;;;;3.58;3.38;;;;;;;;;;5138435;27;20282;-66
2022/08/11 01:39:40;;;;;;;3.53;3.33;;;;;;;;;;5138575;27;20209;-66
2022/08/11 01:45:36;;;;;;;3.63;3.42;;;;;;;;;;5078494;27;20244;-66
2022/08/11 01:48:07;;;;;;;3.60;3.40;;;;;;;;;;5138659;27;20289;-66
2022/08/11 01:50:51;;;;;;;3.88;3.58;;;;;;;;;;5138523;27;20575;-66
2022/08/11 01:53:29;;;;;;;3.45;3.25;;;;;;;;;;5138468;27;20305;-66
2022/08/11 01:56:04;;;;;;;3.38;3.17;;;;;;;;;;5138162;27;20205;-67
2022/08/11 01:58:44;;;;;;;3.38;3.10;;;;;;;;;;5137518;27;20225;-66
2022/08/11 02:01:17;;;;;;;3.38;3.17;;;;;;;;;;5137655;27;20209;-66
2022/08/11 02:03:50;;;;;;;3.85;3.55;;;;;;;;;;5137011;27;20255;-66
2022/08/11 02:09:26;;;;;;;3.60;3.40;;;;;;;;;;5137448;27;20205;-66
2022/08/11 02:11:56;;;;;;;3.70;3.40;;;;;;;;;;5138182;28;20301;-66
2022/08/11 02:14:27;;;;;;;3.63;3.42;;;;;;;;;;5138785;28;20547;-66
2022/08/11 02:17:03;;;;;;;3.60;3.40;;;;;;;;;;5138053;28;20262;-66
2022/08/11 02:25:18;;;;;;;3.60;3.40;;;;;;;;;;5137053;28;20524;-66
2022/08/11 02:27:49;;;;;;;3.83;3.60;;;;;;;;;;5137132;28;20200;-66
2022/08/11 02:30:18;;;;;;;3.70;3.50;;;;;;;;;;5136503;28;20206;-66
2022/08/11 02:35:41;;;;;;;3.70;3.50;;;;;;;;;;5137694;27;20186;-66
2022/08/11 02:38:15;;;;;;;3.95;3.65;;;;;;;;;;5137741;28;20312;-66
2022/08/11 02:40:48;;;;;;;3.60;3.40;;;;;;;;;;5137488;27;20202;-66
2022/08/11 02:43:22;;;;;;;3.58;3.38;;;;;;;;;;5137307;28;20289;-66
2022/08/11 02:45:54;;;;;;;3.28;3.08;;;;;;;;;;5137847;28;20266;-66
2022/08/11 02:51:28;;;;;;;3.55;3.35;;;;;;;;;;5137273;27;20246;-66
2022/08/11 02:54:00;;;;;;;3.63;3.33;;;;;;;;;;5136448;28;20251;-66
2022/08/11 02:56:43;;;;;;;3.30;3.10;;;;;;;;;;5128667;28;20542;-66
2022/08/11 03:02:07;;;;;;;3.70;3.47;;;;;;;;;;5136800;28;20274;-66
2022/08/11 03:04:39;;;;;;;3.55;3.35;;;;;;;;;;5137029;28;20225;-66
2022/08/11 03:07:09;;;;;;;3.55;3.35;;;;;;;;;;5137060;28;20575;-66
2022/08/11 03:09:47;;;;;;;3.13;2.92;;;;;;;;;;5137831;27;20206;-66
2022/08/11 03:18:01;;;;;;;3.53;3.33;;;;;;;;;;5140873;27;20275;-66
2022/08/11 03:20:33;;;;;;;3.53;3.33;;;;;;;;;;5141531;27;20565;-66
2022/08/11 03:23:04;;;;;;;3.70;3.50;;;;;;;;;;5129806;27;20198;-66
2022/08/11 03:25:33;;;;;;;3.50;3.30;;;;;;;;;;5140873;27;20570;-66
2022/08/11 03:28:05;;;;;;;3.42;3.22;;;;;;;;;;5141285;27;20575;-66
2022/08/11 03:30:35;;;;;;;3.38;3.17;;;;;;;;;;5141062;27;20589;-66
2022/08/11 03:35:59;;;;;;;3.55;3.35;;;;;;;;;;5140721;27;20189;-66
2022/08/11 03:38:27;;;;;;;3.58;3.38;;;;;;;;;;5141314;27;20214;-66
2022/08/11 03:44:01;;;;;;;3.97;3.67;;;;;;;;;;5140387;27;20308;-66
2022/08/11 03:46:38;;;;;;;3.80;3.60;;;;;;;;;;5140792;27;20202;-66
2022/08/11 03:49:08;;;;;;;3.45;3.25;;;;;;;;;;5140202;27;20472;-66
2022/08/11 03:51:46;;;;;;;3.08;2.88;;;;;;;;;;5140440;27;20209;-66
2022/08/11 03:54:19;;;;;;;3.78;3.58;;;;;;;;;;5140177;27;20213;-66
2022/08/11 03:57:04;;;;;;;3.72;3.53;;;;;;;;;;5140105;27;20201;-66
2022/08/11 03:59:59;;;;;;;3.55;3.35;;;;;;;;;;5139160;27;20226;-66
2022/08/11 04:02:35;;;;;;;3.70;3.42;;;;;;;;;;5080588;27;20203;-66
2022/08/11 04:05:20;;;;;;;3.70;3.50;;;;;;;;;;5139626;27;20210;-66
2022/08/11 04:08:12;;;;;;;3.90;3.70;;;;;;;;;;5139561;27;20202;-67
2022/08/11 04:10:50;;;;;;;3.42;3.22;;;;;;;;;;5114591;27;20239;-66
2022/08/11 04:13:35;;;;;;;3.58;3.38;;;;;;;;;;5138960;27;20202;-66
2022/08/11 04:16:08;;;;;;;3.53;3.33;;;;;;;;;;5138429;27;20210;-66
2022/08/11 04:18:53;;;;;;;3.30;3.10;;;;;;;;;;5139875;27;20282;-66
2022/08/11 04:21:48;;;;;;;3.60;3.40;;;;;;;;;;5138691;27;20214;-66
2022/08/11 04:24:30;;;;;;;3.72;3.42;;;;;;;;;;5138792;27;20209;-66
2022/08/11 04:27:16;;;;;;;3.53;3.33;;;;;;;;;;5135904;27;20597;-66
2022/08/11 04:29:51;;;;;;;3.60;3.40;;;;;;;;;;5139429;27;20194;-66
2022/08/11 04:32:35;;;;;;;3.50;3.30;;;;;;;;;;5138668;27;20251;-66
2022/08/11 04:35:19;;;;;;;3.60;3.40;;;;;;;;;;5139116;27;20574;-66
2022/08/11 04:38:08;;;;;;;3.60;3.40;;;;;;;;;;5138121;27;20262;-66
2022/08/11 04:40:44;;;;;;;3.70;3.50;;;;;;;;;;5124120;27;20209;-66
2022/08/11 04:43:28;;;;;;;3.58;3.38;;;;;;;;;;5138993;27;20654;-66
2022/08/11 04:46:11;;;;;;;3.85;3.55;;;;;;;;;;5138523;27;20262;-66
2022/08/11 05:03:24;;;;;;;3.72;3.53;;;;;;;;;;5137884;27;20234;-66
2022/08/11 05:06:18;;;;;;;3.60;3.40;;;;;;;;;;5138250;27;20291;-66
2022/08/11 05:09:02;;;;;;;3.88;3.58;;;;;;;;;;5077970;27;20198;-66
2022/08/11 05:11:39;;;;;;;3.70;3.40;;;;;;;;;;5129351;27;20207;-66
2022/08/11 05:36:42;;;;;;;3.60;3.40;;;;;;;;;;5137088;27;20283;-66
2022/08/11 05:58:37;;;;;;;3.53;3.33;;;;;;;;;;5115560;28;20251;-66
2022/08/11 06:01:05;;;;;;;3.67;3.47;;;;;;;;;;5116278;28;20215;-66
2022/08/11 06:04:12;;;;;;;3.50;3.30;;;;;;;;;;5115751;28;20202;-66
2022/08/11 06:06:23;;;;;;;3.42;3.22;;;;;;;;;;5123952;27;20305;-66
2022/08/11 06:08:51;;;;;;;3.40;3.20;;;;;;;;;;5136373;27;20198;-66
2022/08/11 06:11:18;;;;;;;3.72;3.42;;;;;;;;;;5136423;28;20226;-66
2022/08/11 06:13:46;;;;;;;3.78;3.58;;;;;;;;;;5136613;28;20209;-66
2022/08/11 06:16:15;;;;;;;3.33;3.10;;;;;;;;;;5136453;27;20202;-66
2022/08/11 06:18:46;;;;;;;3.55;3.35;;;;;;;;;;5136020;28;20230;-66
2022/08/11 06:21:14;;;;;;;3.40;3.20;;;;;;;;;;5136879;28;20463;-66
2022/08/11 06:23:44;;;;;;;3.53;3.33;;;;;;;;;;5136379;27;20282;-66
2022/08/11 06:26:13;;;;;;;3.80;3.55;;;;;;;;;;5135904;27;20784;-66
2022/08/11 06:28:41;;;;;;;3.38;3.17;;;;;;;;;;5136347;27;20270;-66
2022/08/11 06:31:13;;;;;;;3.50;3.20;;;;;;;;;;5136021;27;20534;-66
2022/08/11 06:33:48;;;;;;;3.30;3.10;;;;;;;;;;5135394;27;20242;-66
2022/08/11 06:36:18;;;;;;;3.30;3.10;;;;;;;;;;5136322;28;20202;-66
2022/08/11 06:38:54;;;;;;;3.47;3.28;;;;;;;;;;5134579;28;20256;-66
2022/08/11 06:41:33;;;;;;;3.30;3.10;;;;;;;;;;5135827;28;20209;-66
2022/08/11 06:44:10;;;;;;;3.42;3.22;;;;;;;;;;5135783;27;20251;-66
2022/08/11 06:46:39;;;;;;;3.47;3.28;;;;;;;;;;5139507;27;20213;-66
2022/08/11 06:51:10;;;;;;;3.70;3.50;;;;;;;;;;5139777;27;20740;-66
2022/08/11 06:51:55;;;;;;;3.25;3.05;;;;;;;;;;5139678;27;20217;-66
2022/08/11 06:54:24;;;;;;;3.45;3.25;;;;;;;;;;5139954;27;20296;-66
2022/08/11 07:02:25;;;;;;;3.40;3.20;;;;;;;;;;5138288;27;20197;-66
2022/08/11 07:04:56;;;;;;;3.20;3.00;;;;;;;;;;5139302;27;20210;-66
2022/08/11 07:16:05;;;;;;;3.17;2.97;;;;;;;;;;5138139;27;20627;-66
2022/08/11 07:29:44;;;;;;;3.33;3.10;;;;;;;;;;5137686;27;20209;-66
2022/08/11 07:32:22;;;;;;;3.38;3.17;;;;;;;;;;5137228;27;20504;-66
2022/08/11 07:34:53;;;;;;;3.70;3.40;;;;;;;;;;5138057;27;20202;-66
2022/08/11 07:37:20;;;;;;;3.17;2.97;;;;;;;;;;5138391;27;20672;-66
2022/08/11 07:39:49;;;;;;;3.15;2.95;;;;;;;;;;5137039;27;20237;-66
2022/08/11 07:42:21;;;;;;;3.20;3.00;;;;;;;;;;5137398;27;20206;-66
2022/08/11 07:53:07;;;;;;;3.33;3.13;;;;;;;;;;5136685;27;20189;-66
2022/08/11 07:55:37;;;;;;;3.33;3.13;;;;;;;;;;5136625;27;20594;-66
2022/08/11 08:20:11;;;;;;;3.30;3.10;;;;;;;;;;5136859;27;20226;-66
2022/08/11 08:22:39;;;;;;;3.00;2.80;;;;;;;;;;5134425;27;20255;-66
2022/08/11 08:25:07;;;;;;;3.30;3.10;;;;;;;;;;5135797;27;20234;-65
2022/08/11 08:27:35;;;;;;;2.85;2.65;;;;;;;;;;5136955;27;20229;-66
2022/08/11 08:32:50;;;;;;;2.95;2.75;;;;;;;;;;5137438;27;20536;-66
2022/08/11 08:35:18;;;;;;;3.10;2.90;;;;;;;;;;5137676;27;20206;-66
2022/08/11 08:37:45;;;;;;;2.90;2.70;;;;;;;;;;5137058;27;20247;-66
2022/08/11 08:40:13;;;;;;;2.97;2.78;;;;;;;;;;5136926;27;20234;-65
2022/08/11 08:42:46;;;;;;;3.05;2.75;;;;;;;;;;5136749;27;20194;-66
2022/08/11 08:45:17;;;;;;;2.78;2.58;;;;;;;;;;5137188;27;20505;-66
2022/08/11 08:47:47;;;;;;;2.60;2.50;;;;;;;;;;5137253;27;20222;-66
2022/08/11 08:50:18;;;;;;;2.88;2.70;;;;;;;;;;5134807;27;20290;-66
2022/08/11 08:52:48;;;;;;;2.90;2.70;;;;;;;;;;5135665;27;20202;-66
2022/08/11 08:55:18;;;;;;;2.83;2.63;;;;;;;;;;5136009;27;20202;-66
2022/08/11 08:57:46;;;;;;;2.70;2.60;;;;;;;;;;5117666;27;20198;-66
2022/08/11 09:00:16;;;;;;;2.83;2.63;;;;;;;;;;5135512;27;20219;-66
2022/08/11 09:02:44;;;;;;;2.95;2.75;;;;;;;;;;5135235;27;20198;-66
2022/08/11 09:05:12;;;;;;;3.05;2.85;;;;;;;;;;5135110;27;20209;-66
2022/08/11 09:07:40;;;;;;;2.90;2.70;;;;;;;;;;5135502;27;20481;-66
2022/08/11 09:10:09;;;;;;;2.85;2.65;;;;;;;;;;5135857;27;20199;-66
2022/08/11 09:12:37;;;;;;;2.90;2.70;;;;;;;;;;5135575;27;20233;-66
2022/08/11 09:15:06;;;;;;;3.00;2.80;;;;;;;;;;5135648;27;20202;-66
2022/08/11 09:17:37;;;;;;;2.90;2.70;;;;;;;;;;5133909;27;20204;-66
2022/08/11 09:20:06;;;;;;;2.70;2.50;;;;;;;;;;5135137;27;20764;-66
2022/08/11 09:28:06;;;;;;;2.53;2.33;;;;;;;;;;5135221;27;20319;-66
2022/08/11 09:30:33;;;;;;;2.47;2.38;;;;;;;;;;5135100;27;20201;-66
2022/08/11 09:33:04;;;;;;;2.85;2.65;;;;;;;;;;5135186;27;20280;-66
2022/08/11 09:35:35;;;;;;;2.88;2.67;;;;;;;;;;5127730;27;20194;-66
2022/08/11 09:40:49;;;;;;;2.72;2.53;;;;;;;;;;5134805;27;20242;-66
2022/08/11 09:46:04;;;;;;;2.80;2.60;;;;;;;;;;5135141;27;20206;-66
2022/08/11 09:48:39;;;;;;;3.30;2.75;;;;;;;;;;5134166;27;20210;-66
2022/08/11 09:51:07;;;;;;;2.95;2.75;;;;;;;;;;5134560;27;20208;-66
2022/08/11 09:53:36;;;;;;;2.88;2.70;;;;;;;;;;5135078;27;20658;-66
2022/08/11 09:58:12;;;;;;;2.92;2.72;;;;;;;;;;5134092;27;20273;-66
2022/08/11 09:58:51;;;;;;;2.58;2.35;;;;;;;;;;5134729;27;20225;-66
2022/08/11 10:01:26;;;;;;;2.58;2.45;;;;;;;;;;5134423;27;20229;-66
2022/08/11 10:04:00;;;;;;;2.40;2.30;;;;;;;;;;5134276;27;20274;-66
2022/08/11 10:09:16;;;;;;;2.60;2.40;;;;;;;;;;5133282;27;20290;-66
2022/08/11 10:11:44;;;;;;;2.60;2.40;;;;;;;;;;5128297;27;20203;-66
2022/08/11 10:16:57;;;;;;;2.30;2.20;;;;;;;;;;5134319;27;20189;-66
2022/08/11 10:19:25;;;;;;;2.40;2.30;;;;;;;;;;5134160;27;20267;-66
2022/08/11 10:27:20;;;;;;;2.78;2.58;;;;;;;;;;5138373;27;20580;-66
2022/08/11 10:35:24;;;;;;;2.60;2.40;;;;;;;;;;5137747;27;20781;-66
2022/08/11 10:37:53;;;;;;;2.83;2.63;;;;;;;;;;5138213;27;20270;-66
2022/08/11 10:40:22;;;;;;;2.63;2.42;;;;;;;;;;5137320;27;20218;-66
2022/08/11 10:43:01;;;;;;;2.67;2.53;;;;;;;;;;5137724;27;20230;-66
2022/08/11 10:48:16;;;;;;;2.80;2.60;;;;;;;;;;5137571;27;20194;-66
2022/08/11 10:59:03;;;;;;;2.20;2.10;;;;;;;;;;5137370;27;20189;-66
2022/08/11 11:01:32;;;;;;;2.75;2.50;;;;;;;;;;5138353;27;20210;-66
2022/08/11 11:04:01;;;;;;;2.95;2.65;;;;;;;;;;5137713;27;20210;-66
2022/08/11 11:06:34;;;;;;;2.45;2.33;;;;;;;;;;5136951;27;20221;-66
2022/08/11 11:09:03;;;;;;;2.30;2.20;;;;;;;;;;5137807;27;20232;-66
2022/08/11 11:19:54;;;;;;;2.47;2.38;;;;;;;;;;5136817;27;20322;-66
2022/08/11 11:22:38;;;;;;;2.58;2.38;;;;;;;;;;5137364;27;20210;-66
2022/08/11 11:25:11;;;;;;;2.40;2.30;;;;;;;;;;5136692;27;20238;-66
2022/08/11 11:27:46;;;;;;;2.40;2.22;;;;;;;;;;5137372;27;20202;-66
2022/08/11 11:30:14;;;;;;;2.30;2.20;;;;;;;;;;5136794;27;20190;-66
2022/08/11 11:32:45;;;;;;;2.20;2.10;;;;;;;;;;5136658;27;20307;-66
2022/08/11 11:35:22;;;;;;;2.40;2.20;;;;;;;;;;5136501;27;20194;-66
2022/08/11 11:37:51;;;;;;;2.60;2.40;;;;;;;;;;5137040;27;20206;-66
2022/08/11 11:40:20;;;;;;;2.40;2.30;;;;;;;;;;5137054;27;20226;-66
2022/08/11 11:42:48;;;;;;;2.72;2.53;;;;;;;;;;5136508;27;20262;-66
2022/08/11 11:45:17;;;;;;;2.33;2.13;;;;;;;;;;5136544;27;20263;-66
2022/08/11 11:47:45;;;;;;;2.75;2.33;;;;;;;;;;5136807;27;20730;-66
2022/08/11 11:50:13;;;;;;;2.40;2.30;;;;;;;;;;5136500;27;20248;-66
2022/08/11 11:52:42;;;;;;;2.40;2.20;;;;;;;;;;5136839;27;20206;-66
2022/08/11 11:55:13;;;;;;;2.53;2.33;;;;;;;;;;5136328;27;20190;-66
2022/08/11 12:03:15;;;;;;;2.22;2.13;;;;;;;;;;5135389;27;20503;-66
2022/08/11 12:05:43;;;;;;;2.28;2.17;;;;;;;;;;5136015;27;20207;-66
2022/08/11 12:08:15;;;;;;;2.28;2.17;;;;;;;;;;5135664;27;20206;-66
2022/08/11 12:10:49;;;;;;;2.42;2.33;;;;;;;;;;5135895;27;20259;-66
2022/08/11 12:13:42;;;;;;;2.55;2.35;;;;;;;;;;5136841;27;20857;-66
2022/08/11 12:16:10;;;;;;;2.38;2.20;;;;;;;;;;5136966;27;20474;-66
2022/08/11 12:18:38;;;;;;;2.00;1.85;;;;;;;;;;5136464;27;20669;-66
2022/08/11 12:21:05;;;;;;;2.60;2.40;;;;;;;;;;5136772;27;20282;-66
2022/08/11 12:29:06;;;;;;;2.30;2.20;;;;;;;;;;5134813;27;20237;-66
2022/08/11 12:31:33;;;;;;;2.53;2.35;;;;;;;;;;5136104;27;20207;-66
2022/08/11 12:34:01;;;;;;;2.50;2.30;;;;;;;;;;5135891;27;20546;-66
2022/08/11 12:36:29;;;;;;;2.90;2.53;;;;;;;;;;5135328;27;20194;-66
2022/08/11 12:38:58;;;;;;;2.85;2.40;;;;;;;;;;5136124;27;20245;-66
2022/08/11 12:47:04;;;;;;;2.83;2.63;;;;;;;;;;5133739;27;20731;-66
2022/08/11 12:52:21;;;;;;;2.63;2.42;;;;;;;;;;5135141;27;20208;-66
2022/08/11 12:54:58;;;;;;;2.60;2.40;;;;;;;;;;5134652;27;20687;-66
2022/08/11 13:05:49;;;;;;;2.70;2.50;;;;;;;;;;5133715;27;20246;-65
2022/08/11 13:08:17;;;;;;;3.05;2.40;;;;;;;;;;5134222;27;20198;-66
2022/08/11 13:13:32;;;;;;;3.17;2.47;;;;;;;;;;5132970;27;20188;-66
2022/08/11 13:15:59;;;;;;;2.45;2.25;;;;;;;;;;5134248;27;20206;-66
2022/08/11 13:18:26;;;;;;;2.78;2.58;;;;;;;;;;5133842;27;20206;-66
2022/08/11 13:20:54;;;;;;;3.08;2.47;;;;;;;;;;5133770;27;20305;-66
2022/08/11 13:23:24;;;;;;;2.78;2.47;;;;;;;;;;5134259;27;20206;-66
2022/08/11 13:25:52;;;;;;;2.78;2.58;;;;;;;;;;5135625;27;20261;-66
2022/08/11 13:28:20;;;;;;;2.65;2.40;;;;;;;;;;5133611;27;20206;-66
2022/08/11 13:33:50;;;;;;;2.72;2.47;;;;;;;;;;5031066;28;20623;-66
2022/08/11 13:36:19;;;;;;;2.40;2.20;;;;;;;;;;5111321;27;20262;-66
2022/08/11 13:38:47;;;;;;;3.38;2.42;;;;;;;;;;5134033;27;20202;-66
2022/08/11 13:44:00;;;;;;;3.65;2.22;;;;;;;;;;5132871;27;20282;-67
2022/08/11 13:46:29;;;;;;;2.90;2.25;;;;;;;;;;5133443;27;20209;-66
2022/08/11 13:48:57;;;;;;;2.47;2.30;;;;;;;;;;5133505;27;20257;-66
2022/08/11 13:51:32;;;;;;;4.15;2.30;;;;;;;;;;5133084;27;20198;-66
2022/08/11 13:54:00;;;;;;;4.57;2.40;;;;;;;;;;5132959;27;20198;-66
2022/08/11 13:56:28;;;;;;;2.80;2.40;;;;;;;;;;5124894;27;20202;-66
2022/08/11 13:58:56;;;;;;;2.55;2.28;;;;;;;;;;5134005;27;20197;-66
2022/08/11 14:01:25;;;;;;;3.55;2.33;;;;;;;;;;5133856;27;20222;-66
2022/08/11 14:03:54;;;;;;;2.65;2.40;;;;;;;;;;5133977;27;20198;-66
2022/08/11 14:06:22;;;;;;;2.42;2.28;;;;;;;;;;5134475;27;20206;-66
2022/08/11 14:08:53;;;;;;;3.55;2.28;;;;;;;;;;5133159;27;20202;-66
2022/08/11 14:14:07;;;;;;;2.40;2.30;;;;;;;;;;5132024;27;20192;-66
2022/08/11 14:16:38;;;;;;;3.03;2.55;;;;;;;;;;5131426;27;20248;-66
2022/08/11 14:19:10;;;;;;;2.78;2.10;;;;;;;;;;5121251;28;20490;-66
2022/08/11 14:24:24;;;;;;;3.25;2.25;;;;;;;;;;5134030;28;20736;-66
2022/08/11 14:26:52;;;;;;;3.08;2.30;;;;;;;;;;5133683;28;20210;-66
2022/08/11 14:29:20;;;;;;;2.13;2.03;;;;;;;;;;5123571;27;20244;-66
2022/08/11 14:31:50;;;;;;;2.47;2.28;;;;;;;;;;5127499;27;20206;-66
2022/08/11 14:34:21;;;;;;;2.60;2.40;;;;;;;;;;5133584;28;20263;-66
2022/08/11 14:36:51;;;;;;;2.65;2.40;;;;;;;;;;5134396;27;20212;-66
2022/08/11 14:39:19;;;;;;;2.65;2.40;;;;;;;;;;5133384;28;20213;-66
2022/08/11 14:47:20;;;;;;;2.40;2.22;;;;;;;;;;5133176;28;20185;-66
2022/08/11 14:49:50;;;;;;;2.78;2.58;;;;;;;;;;5133771;28;20617;-66
2022/08/11 14:52:19;;;;;;;2.63;2.42;;;;;;;;;;5132821;28;20229;-66
2022/08/11 14:57:34;;;;;;;2.97;2.50;;;;;;;;;;5133272;28;20193;-66
2022/08/11 15:00:02;;;;;;;2.55;2.45;;;;;;;;;;5132944;28;20206;-66
2022/08/11 15:05:16;;;;;;;3.35;2.55;;;;;;;;;;5133339;27;20218;-66
2022/08/11 15:07:44;;;;;;;2.90;2.60;;;;;;;;;;5135802;27;20210;-66
2022/08/11 15:10:11;;;;;;;3.20;2.65;;;;;;;;;;5136681;27;20202;-66
2022/08/11 15:12:41;;;;;;;2.92;2.72;;;;;;;;;;5122693;27;20195;-66
2022/08/11 15:17:55;;;;;;;2.80;2.60;;;;;;;;;;5136229;27;20503;-66
2022/08/11 15:25:56;;;;;;;2.88;2.67;;;;;;;;;;5157211;27;20264;-66
2022/08/11 15:39:29;;;;;;;2.72;2.40;;;;;;;;;;5144258;27;20200;-66
2022/08/11 15:47:38;;;;;;;2.67;2.50;;;;;;;;;;5137062;27;20208;-66
2022/08/11 15:50:07;;;;;;;3.47;2.80;;;;;;;;;;5137688;27;20202;-66
2022/08/11 15:52:42;;;;;;;2.63;2.42;;;;;;;;;;5137469;27;20200;-66
2022/08/11 15:55:09;;;;;;;3.25;2.60;;;;;;;;;;5137754;27;20229;-66
2022/08/11 16:05:55;;;;;;;3.10;2.50;;;;;;;;;;5131484;27;20221;-66
2022/08/11 16:08:25;;;;;;;3.10;2.80;;;;;;;;;;5127084;27;20255;-66
2022/08/11 16:10:54;;;;;;;3.70;2.95;;;;;;;;;;5135685;27;20559;-66
2022/08/11 16:16:15;;;;;;;2.72;2.53;;;;;;;;;;5135634;27;20323;-66
2022/08/11 16:18:46;;;;;;;3.35;2.60;;;;;;;;;;5135540;27;20202;-66
2022/08/11 16:21:15;;;;;;;4.40;2.40;;;;;;;;;;5136026;27;20629;-66
2022/08/11 16:23:44;;;;;;;2.60;2.40;;;;;;;;;;5135924;27;20259;-66
2022/08/11 16:26:12;;;;;;;2.80;2.60;;;;;;;;;;5135573;27;20580;-66
2022/08/11 16:28:43;;;;;;;2.90;2.55;;;;;;;;;;5137636;27;20231;-66
2022/08/11 16:31:11;;;;;;;2.60;2.40;;;;;;;;;;5137395;27;20297;-66
2022/08/11 16:33:40;;;;;;;2.72;2.50;;;;;;;;;;5135785;27;20198;-66
2022/08/11 16:38:55;;;;;;;3.92;2.47;;;;;;;;;;5135654;27;20239;-66
2022/08/11 16:47:00;;;;;;;2.60;2.40;;;;;;;;;;5135862;27;20573;-66
2022/08/11 16:49:29;;;;;;;2.42;2.30;;;;;;;;;;5127516;27;20271;-66
2022/08/11 16:51:57;;;;;;;3.03;2.30;;;;;;;;;;5136156;27;20198;-66
2022/08/11 16:54:25;;;;;;;2.40;2.10;;;;;;;;;;5136068;27;20202;-66
2022/08/11 16:56:55;;;;;;;2.40;2.25;;;;;;;;;;5129578;27;20207;-66
2022/08/11 16:59:24;;;;;;;2.63;2.47;;;;;;;;;;5126704;27;20210;-66
2022/08/11 17:01:56;;;;;;;3.00;2.38;;;;;;;;;;5128478;27;20223;-67
2022/08/11 17:13:11;;;;;;;2.35;2.22;;;;;;;;;;5033383;28;20330;-66
2022/08/11 17:18:46;;;;;;;2.42;2.20;;;;;;;;;;5032911;28;20300;-66
2022/08/11 17:21:16;;;;;;;5.03;2.17;;;;;;;;;;5032858;28;20226;-66
2022/08/11 17:23:46;;;;;;;2.40;2.20;;;;;;;;;;5073770;28;20214;-67
2022/08/11 17:26:17;;;;;;;6.45;2.30;;;;;;;;;;5115251;28;20359;-66
2022/08/11 17:28:48;;;;;;;2.80;2.30;;;;;;;;;;5123607;27;20477;-66
2022/08/11 17:36:50;;;;;;;4.30;2.00;;;;;;;;;;5135870;27;20209;-66
2022/08/11 17:39:18;;;;;;;2.58;1.90;;;;;;;;;;5136974;27;20490;-66
2022/08/11 17:50:03;;;;;;;1.95;1.70;;;;;;;;;;5135674;27;20189;-66
2022/08/11 18:00:49;;;;;;;2.40;2.20;;;;;;;;;;5136050;27;20668;-66
2022/08/11 18:03:31;;;;;;;5.00;1.77;;;;;;;;;;5135615;27;20194;-66
2022/08/11 18:06:00;;;;;;;2.03;1.83;;;;;;;;;;5135843;27;20566;-67
